createdAt,value
2023-03-27T00:01:14.876Z,39.00
2023-03-27T00:03:43.649Z,36.73
2023-03-27T00:06:16.242Z,40.90
2023-03-27T00:08:44.221Z,32.30
2023-03-27T00:11:12.013Z,37.83
2023-03-27T00:13:49.162Z,37.27
2023-03-27T00:16:18.286Z,36.30
2023-03-27T00:18:46.587Z,25.77
2023-03-27T00:21:14.363Z,27.87
2023-03-27T00:23:42.310Z,23.70
2023-03-27T00:26:09.914Z,34.03
2023-03-27T00:28:37.391Z,32.67
2023-03-27T00:31:11.629Z,31.30
2023-03-27T00:33:39.654Z,37.23
2023-03-27T00:36:07.895Z,17.80
2023-03-27T00:38:35.430Z,20.87
2023-03-27T00:41:03.110Z,14.80
2023-03-27T00:43:34.001Z,16.60
2023-03-27T00:46:04.459Z,14.23
2023-03-27T00:48:35.793Z,18.00
2023-03-27T00:51:04.506Z,23.70
2023-03-27T00:53:32.234Z,17.40
2023-03-27T00:56:02.579Z,16.40
2023-03-27T00:58:32.998Z,18.73
2023-03-27T01:01:00.511Z,19.93
2023-03-27T01:03:32.073Z,15.87
2023-03-27T01:06:03.014Z,23.90
2023-03-27T01:08:33.903Z,25.53
2023-03-27T01:11:15.313Z,28.43
2023-03-27T01:13:57.773Z,22.47
2023-03-27T01:16:35.880Z,17.90
2023-03-27T01:19:22.470Z,27.10
2023-03-27T01:22:40.682Z,21.63
2023-03-27T01:25:33.006Z,32.17
2023-03-27T01:28:17.747Z,33.53
2023-03-27T01:30:53.517Z,32.70
2023-03-27T01:34:02.670Z,33.70
2023-03-27T01:37:15.715Z,27.30
2023-03-27T01:39:53.022Z,29.07
2023-03-27T01:42:26.649Z,26.43
2023-03-27T01:45:03.272Z,31.30
2023-03-27T01:47:47.823Z,30.93
2023-03-27T01:50:22.044Z,26.67
2023-03-27T01:52:56.363Z,28.67
2023-03-27T01:55:29.161Z,28.00
2023-03-27T01:58:03.114Z,29.67
2023-03-27T02:00:51.370Z,30.10
2023-03-27T02:03:22.519Z,31.67
2023-03-27T02:05:56.233Z,27.43
2023-03-27T02:08:27.817Z,32.80
2023-03-27T02:10:59.405Z,31.63
2023-03-27T02:13:32.317Z,26.90
2023-03-27T02:16:02.364Z,40.70
2023-03-27T02:18:34.350Z,16.53
2023-03-27T02:21:03.105Z,35.60
2023-03-27T02:23:31.674Z,26.57
2023-03-27T02:26:01.652Z,28.87
2023-03-27T02:28:42.145Z,26.57
2023-03-27T02:31:36.718Z,25.93
2023-03-27T02:34:19.351Z,25.83
2023-03-27T02:36:55.901Z,21.20
2023-03-27T02:39:27.896Z,22.27
2023-03-27T02:42:03.502Z,31.43
2023-03-27T02:44:47.021Z,38.67
2023-03-27T02:47:20.379Z,25.80
2023-03-27T02:49:52.418Z,43.47
2023-03-27T02:52:24.219Z,28.83
2023-03-27T02:54:56.676Z,43.70
2023-03-27T02:57:28.942Z,35.27
2023-03-27T03:00:00.481Z,40.83
2023-03-27T03:02:34.711Z,32.10
2023-03-27T03:05:07.095Z,28.07
2023-03-27T03:07:36.081Z,28.00
2023-03-27T03:10:03.881Z,33.57
2023-03-27T03:12:32.748Z,25.10
2023-03-27T03:15:00.382Z,27.73
2023-03-27T03:17:27.890Z,21.90
2023-03-27T03:19:55.403Z,27.77
2023-03-27T03:22:22.873Z,24.77
2023-03-27T03:24:50.996Z,26.90
2023-03-27T03:27:20.832Z,52.37
2023-03-27T03:29:50.358Z,24.17
2023-03-27T03:32:17.984Z,31.53
2023-03-27T03:34:46.607Z,23.50
2023-03-27T03:37:14.109Z,27.17
2023-03-27T03:39:42.895Z,19.10
2023-03-27T03:42:10.655Z,27.77
2023-03-27T03:44:51.944Z,43.90
2023-03-27T03:47:19.518Z,125.03
2023-03-27T03:49:47.025Z,38.03
2023-03-27T03:52:14.505Z,37.53
2023-03-27T03:54:42.007Z,16.87
2023-03-27T03:57:09.571Z,22.30
2023-03-27T03:59:37.216Z,26.53
2023-03-27T04:02:06.142Z,25.47
2023-03-27T04:04:33.674Z,20.63
2023-03-27T04:07:01.147Z,30.77
2023-03-27T04:09:28.607Z,31.17
2023-03-27T04:11:56.138Z,38.50
2023-03-27T04:14:23.717Z,30.63
2023-03-27T04:16:51.209Z,39.60
2023-03-27T04:19:20.029Z,39.10
2023-03-27T04:21:48.239Z,40.63
2023-03-27T04:24:18.131Z,39.87
2023-03-27T04:26:46.579Z,39.80
2023-03-27T04:29:14.060Z,23.97
2023-03-27T04:31:46.537Z,74.43
2023-03-27T04:34:14.234Z,68.27
2023-03-27T04:36:43.081Z,27.73
2023-03-27T04:39:10.975Z,25.83
2023-03-27T04:41:38.755Z,19.70
2023-03-27T04:44:06.328Z,33.30
2023-03-27T04:46:33.894Z,39.10
2023-03-27T04:49:01.386Z,45.53
2023-03-27T04:51:32.403Z,44.47
2023-03-27T04:54:04.674Z,54.73
2023-03-27T04:56:33.756Z,35.07
2023-03-27T04:59:01.409Z,49.63
2023-03-27T05:01:28.993Z,24.70
2023-03-27T05:03:56.632Z,36.60
2023-03-27T05:06:25.485Z,37.93
2023-03-27T05:08:53.533Z,27.13
2023-03-27T05:11:22.409Z,35.70
2023-03-27T05:13:49.854Z,46.70
2023-03-27T05:16:18.615Z,47.73
2023-03-27T05:18:46.180Z,45.37
2023-03-27T05:21:13.681Z,49.03
2023-03-27T05:23:41.167Z,35.57
2023-03-27T05:26:08.912Z,20.23
2023-03-27T05:28:39.578Z,28.50
2023-03-27T05:31:10.543Z,40.03
2023-03-27T05:33:38.102Z,118.90
2023-03-27T05:36:06.356Z,35.43
2023-03-27T05:38:34.010Z,26.97
2023-03-27T05:41:02.250Z,19.80
2023-03-27T05:43:29.755Z,21.80
2023-03-27T05:45:58.580Z,36.47
2023-03-27T05:48:26.135Z,40.43
2023-03-27T05:50:53.610Z,27.47
2023-03-27T05:53:21.183Z,37.23
2023-03-27T05:56:03.098Z,47.17
2023-03-27T05:58:31.023Z,52.87
2023-03-27T06:01:00.592Z,35.07
2023-03-27T06:03:30.103Z,42.10
2023-03-27T06:05:59.884Z,57.83
2023-03-27T06:08:28.550Z,15.77
2023-03-27T06:10:56.293Z,19.70
2023-03-27T06:13:24.129Z,17.57
2023-03-27T06:15:54.304Z,58.37
2023-03-27T06:18:23.409Z,55.80
2023-03-27T06:20:51.771Z,42.40
2023-03-27T06:23:19.256Z,51.13
2023-03-27T06:25:47.511Z,75.10
2023-03-27T06:28:15.106Z,65.77
2023-03-27T06:30:42.898Z,45.60
2023-03-27T06:33:12.010Z,35.17
2023-03-27T06:35:42.034Z,56.73
2023-03-27T06:38:09.708Z,65.57
2023-03-27T06:40:37.192Z,37.60
2023-03-27T06:43:06.810Z,22.00
2023-03-27T06:45:37.426Z,20.57
2023-03-27T06:48:17.244Z,38.07
2023-03-27T06:50:50.504Z,43.93
2023-03-27T06:53:27.117Z,14.87
2023-03-27T06:55:55.314Z,32.33
2023-03-27T06:58:22.853Z,31.00
2023-03-27T07:00:51.050Z,19.67
2023-03-27T07:03:20.049Z,20.23
2023-03-27T07:05:49.574Z,26.60
2023-03-27T07:08:23.549Z,18.27
2023-03-27T07:11:03.775Z,9.13
2023-03-27T07:13:38.034Z,10.77
2023-03-27T07:16:06.383Z,6.40
2023-03-27T07:18:33.981Z,6.13
2023-03-27T07:21:02.818Z,7.13
2023-03-27T07:23:30.279Z,5.07
2023-03-27T07:25:58.922Z,3.93
2023-03-27T07:28:26.684Z,14.77
2023-03-27T07:30:54.189Z,10.70
2023-03-27T07:33:22.563Z,14.00
2023-03-27T07:35:50.190Z,13.37
2023-03-27T07:38:19.022Z,13.50
2023-03-27T07:40:46.884Z,16.93
2023-03-27T07:43:14.778Z,21.80
2023-03-27T07:45:42.525Z,12.40
2023-03-27T07:48:14.232Z,17.30
2023-03-27T07:50:42.141Z,19.20
2023-03-27T07:53:09.700Z,20.37
2023-03-27T07:55:59.611Z,29.40
2023-03-27T07:58:27.284Z,22.83
2023-03-27T08:00:55.153Z,23.00
2023-03-27T08:03:25.915Z,13.40
2023-03-27T08:05:55.061Z,18.63
2023-03-27T08:08:23.200Z,16.30
2023-03-27T08:10:51.978Z,20.97
2023-03-27T08:13:20.830Z,18.50
2023-03-27T08:15:48.331Z,13.87
2023-03-27T08:18:15.895Z,12.00
2023-03-27T08:20:43.481Z,13.93
2023-03-27T08:23:10.953Z,10.40
2023-03-27T08:25:38.442Z,6.90
2023-03-27T08:28:06.119Z,7.63
2023-03-27T08:30:35.489Z,13.67
2023-03-27T08:33:03.679Z,10.27
2023-03-27T08:35:31.556Z,12.57
2023-03-27T08:37:59.090Z,8.30
2023-03-27T08:40:29.515Z,14.23
2023-03-27T08:43:01.470Z,14.83
2023-03-27T08:45:33.207Z,15.83
2023-03-27T08:48:08.084Z,16.60
2023-03-27T08:50:39.398Z,13.23
2023-03-27T08:53:16.708Z,13.10
2023-03-27T08:55:46.109Z,13.97
2023-03-27T08:58:19.581Z,6.67
2023-03-27T09:00:54.254Z,6.90
2023-03-27T09:03:29.612Z,13.57
2023-03-27T09:06:00.314Z,6.30
2023-03-27T09:08:40.614Z,11.87
2023-03-27T09:11:14.629Z,6.43
2023-03-27T09:13:47.343Z,9.80
2023-03-27T09:16:21.259Z,9.40
2023-03-27T09:18:57.710Z,4.10
2023-03-27T09:21:32.239Z,5.60
2023-03-27T09:24:02.656Z,3.97
2023-03-27T09:26:35.462Z,3.77
2023-03-27T09:29:06.328Z,5.43
2023-03-27T09:31:40.917Z,5.40
2023-03-27T09:34:15.439Z,3.83
2023-03-27T09:36:44.556Z,10.97
2023-03-27T09:39:21.708Z,3.63
2023-03-27T09:41:52.018Z,5.63
2023-03-27T09:44:25.385Z,19.37
2023-03-27T09:46:58.725Z,3.37
2023-03-27T09:49:28.443Z,3.07
2023-03-27T09:51:58.130Z,7.80
2023-03-27T09:54:28.735Z,8.23
2023-03-27T09:57:01.833Z,3.70
2023-03-27T09:59:33.206Z,12.60
2023-03-27T10:02:09.100Z,8.00
2023-03-27T10:04:38.618Z,3.23
2023-03-27T10:07:09.156Z,2.10
2023-03-27T10:09:38.875Z,5.27
2023-03-27T10:12:11.864Z,5.20
2023-03-27T10:14:41.886Z,5.27
2023-03-27T10:17:22.238Z,4.80
2023-03-27T10:19:54.975Z,5.80
2023-03-27T10:22:29.774Z,2.63
2023-03-27T10:25:01.585Z,7.00
2023-03-27T10:27:32.303Z,3.57
2023-03-27T10:29:59.833Z,4.40
2023-03-27T10:32:44.203Z,3.53
2023-03-27T10:35:25.093Z,5.17
2023-03-27T10:37:53.399Z,5.67
2023-03-27T10:40:22.500Z,7.30
2023-03-27T10:42:50.125Z,4.33
2023-03-27T10:45:19.625Z,9.63
2023-03-27T10:47:50.077Z,4.07
2023-03-27T10:50:26.217Z,5.40
2023-03-27T10:53:02.864Z,3.80
2023-03-27T10:55:44.332Z,3.43
2023-03-27T10:58:24.263Z,7.13
2023-03-27T11:00:58.649Z,4.53
2023-03-27T11:03:33.070Z,6.87
2023-03-27T11:06:03.794Z,6.13
2023-03-27T11:08:42.402Z,3.53
2023-03-27T11:11:15.221Z,4.37
2023-03-27T11:13:45.242Z,4.97
2023-03-27T11:16:16.278Z,2.90
2023-03-27T11:18:49.349Z,2.80
2023-03-27T11:21:20.688Z,3.40
2023-03-27T11:23:54.437Z,3.87
2023-03-27T11:26:24.673Z,5.07
2023-03-27T11:28:57.502Z,6.07
2023-03-27T11:31:38.405Z,4.20
2023-03-27T11:34:11.731Z,6.03
2023-03-27T11:36:48.299Z,4.97
2023-03-27T11:39:26.067Z,6.77
2023-03-27T11:41:55.176Z,7.83
2023-03-27T11:44:24.650Z,9.37
2023-03-27T11:47:20.166Z,9.93
2023-03-27T11:50:04.263Z,9.40
2023-03-27T11:52:42.022Z,8.30
2023-03-27T11:55:24.360Z,8.23
2023-03-27T11:58:06.888Z,7.53
2023-03-27T12:00:39.434Z,5.77
2023-03-27T12:03:33.526Z,8.13
2023-03-27T12:06:14.559Z,8.07
2023-03-27T12:09:00.250Z,8.97
2023-03-27T12:11:38.228Z,9.13
2023-03-27T12:14:28.237Z,8.87
2023-03-27T12:17:15.689Z,9.57
2023-03-27T12:19:59.090Z,9.47
2023-03-27T12:22:36.906Z,7.97
2023-03-27T12:25:26.293Z,7.20
2023-03-27T12:28:06.404Z,6.60
2023-03-27T12:30:43.764Z,6.90
2023-03-27T12:33:32.873Z,12.53
2023-03-27T12:36:05.582Z,7.63
2023-03-27T12:38:38.091Z,5.73
2023-03-27T12:41:13.922Z,12.13
2023-03-27T12:43:46.982Z,7.10
2023-03-27T12:46:31.599Z,6.87
2023-03-27T12:49:02.531Z,6.40
2023-03-27T12:51:39.243Z,7.20
2023-03-27T12:54:24.742Z,6.53
2023-03-27T12:56:59.759Z,6.90
2023-03-27T12:59:30.269Z,7.63
2023-03-27T13:02:26.095Z,6.73
2023-03-27T13:05:24.498Z,6.67
2023-03-27T13:08:08.234Z,8.53
2023-03-27T13:10:46.361Z,8.47
2023-03-27T13:13:58.670Z,5.50
2023-03-27T13:16:40.529Z,2.77
2023-03-27T13:19:23.155Z,2.80
2023-03-27T13:22:03.655Z,4.50
2023-03-27T13:24:46.861Z,5.80
2023-03-27T13:27:31.081Z,8.33
2023-03-27T13:29:59.590Z,7.57
2023-03-27T13:32:34.679Z,9.33
2023-03-27T13:35:08.456Z,7.60
2023-03-27T13:37:48.093Z,19.57
2023-03-27T13:40:26.487Z,7.60
2023-03-27T13:43:01.360Z,24.13
2023-03-27T13:45:38.677Z,15.70
2023-03-27T13:48:31.448Z,10.77
2023-03-27T13:51:34.137Z,30.07
2023-03-27T13:54:48.673Z,15.90
2023-03-27T13:57:28.542Z,21.60
2023-03-27T14:00:37.548Z,7.97
2023-03-27T14:03:45.171Z,3.47
2023-03-27T14:06:56.527Z,13.67
2023-03-27T14:09:38.327Z,9.77
2023-03-27T14:12:15.022Z,7.17
2023-03-27T14:14:58.683Z,5.77
2023-03-27T14:17:53.050Z,7.57
2023-03-27T14:20:26.077Z,4.97
2023-03-27T14:22:57.881Z,4.33
2023-03-27T14:25:31.033Z,5.00
2023-03-27T14:27:58.630Z,4.30
2023-03-27T14:30:28.159Z,4.00
2023-03-27T14:32:57.565Z,3.40
2023-03-27T14:35:35.880Z,3.57
2023-03-27T14:38:05.845Z,6.07
2023-03-27T14:40:35.605Z,25.03
2023-03-27T14:43:06.154Z,6.80
2023-03-27T14:45:36.715Z,2.67
2023-03-27T14:48:07.754Z,4.67
2023-03-27T14:50:38.605Z,3.00
2023-03-27T14:53:10.448Z,12.40
2023-03-27T14:55:42.400Z,10.77
2023-03-27T14:58:18.322Z,2.33
2023-03-27T15:00:50.285Z,4.27
2023-03-27T15:03:20.604Z,5.63
2023-03-27T15:06:02.121Z,6.00
2023-03-27T15:08:33.682Z,6.37
2023-03-27T15:11:01.534Z,7.90
2023-03-27T15:13:35.309Z,5.40
2023-03-27T15:16:06.613Z,5.23
2023-03-27T15:18:39.880Z,3.87
2023-03-27T15:21:13.604Z,4.50
2023-03-27T15:23:46.661Z,5.93
2023-03-27T15:26:19.845Z,6.67
2023-03-27T15:28:53.355Z,2.53
2023-03-27T15:31:21.538Z,5.93
2023-03-27T15:33:54.602Z,26.20
2023-03-27T15:36:27.648Z,24.83
2023-03-27T15:38:56.454Z,22.97
2023-03-27T15:41:38.844Z,23.37
2023-03-27T15:44:11.225Z,6.70
2023-03-27T15:46:49.930Z,6.87
2023-03-27T15:49:32.160Z,5.60
2023-03-27T15:52:21.703Z,4.40
2023-03-27T15:54:54.896Z,5.17
2023-03-27T15:57:22.511Z,4.27
2023-03-27T15:59:53.067Z,5.33
2023-03-27T16:02:22.744Z,5.70
2023-03-27T16:04:53.434Z,5.77
2023-03-27T16:07:25.102Z,4.73
2023-03-27T16:09:55.856Z,5.37
2023-03-27T16:12:28.376Z,5.10
2023-03-27T16:14:58.052Z,4.80
2023-03-27T16:17:34.343Z,4.30
2023-03-27T16:20:07.286Z,4.20
2023-03-27T16:22:38.152Z,3.60
2023-03-27T16:25:08.721Z,4.77
2023-03-27T16:27:38.900Z,5.90
2023-03-27T16:30:09.137Z,4.20
2023-03-27T16:32:37.025Z,3.70
2023-03-27T16:35:04.898Z,3.40
2023-03-27T16:37:32.392Z,3.17
2023-03-27T16:40:01.476Z,4.23
2023-03-27T16:42:28.970Z,4.43
2023-03-27T16:44:56.425Z,3.23
2023-03-27T16:47:24.671Z,3.53
2023-03-27T16:50:09.874Z,4.10
2023-03-27T16:52:38.194Z,4.83
2023-03-27T16:55:08.294Z,6.20
2023-03-27T16:57:35.979Z,5.50
2023-03-27T17:00:03.778Z,5.07
2023-03-27T17:02:34.201Z,5.90
2023-03-27T17:05:02.412Z,5.77
2023-03-27T17:07:29.942Z,5.20
2023-03-27T17:09:57.482Z,5.80
2023-03-27T17:12:27.650Z,5.33
2023-03-27T17:14:55.345Z,6.43
2023-03-27T17:17:23.556Z,7.47
2023-03-27T17:19:51.050Z,7.77
2023-03-27T17:22:18.546Z,6.93
2023-03-27T17:24:56.214Z,13.40
2023-03-27T17:27:26.792Z,10.70
2023-03-27T17:29:55.906Z,10.07
2023-03-27T17:32:24.006Z,8.00
2023-03-27T17:34:52.085Z,10.50
2023-03-27T17:37:20.110Z,12.97
2023-03-27T17:39:47.713Z,8.03
2023-03-27T17:42:15.344Z,7.80
2023-03-27T17:44:44.998Z,6.53
2023-03-27T17:47:12.970Z,9.40
2023-03-27T17:49:40.822Z,18.03
2023-03-27T17:52:11.265Z,16.50
2023-03-27T17:54:39.260Z,16.07
2023-03-27T17:57:06.844Z,19.70
2023-03-27T17:59:36.321Z,23.97
2023-03-27T18:02:05.681Z,26.43
2023-03-27T18:04:34.054Z,25.93
2023-03-27T18:07:01.542Z,23.10
2023-03-27T18:09:29.179Z,17.10
2023-03-27T18:11:56.627Z,18.47
2023-03-27T18:14:24.433Z,16.10
2023-03-27T18:16:51.938Z,18.10
2023-03-27T18:19:20.844Z,17.50
2023-03-27T18:21:48.319Z,17.10
2023-03-27T18:24:15.825Z,13.67
2023-03-27T18:26:43.286Z,12.23
2023-03-27T18:29:11.435Z,13.27
2023-03-27T18:31:39.003Z,18.70
2023-03-27T18:34:06.890Z,17.80
2023-03-27T18:36:35.793Z,18.27
2023-03-27T18:39:06.383Z,22.17
2023-03-27T18:41:35.400Z,18.00
2023-03-27T18:44:02.901Z,20.77
2023-03-27T18:46:30.524Z,18.90
2023-03-27T18:48:58.637Z,18.47
2023-03-27T18:51:26.204Z,19.27
2023-03-27T18:53:55.175Z,21.13
2023-03-27T18:56:22.666Z,25.27
2023-03-27T18:58:50.484Z,24.60
2023-03-27T19:01:18.144Z,17.40
2023-03-27T19:03:45.632Z,22.80
2023-03-27T19:06:14.187Z,27.70
2023-03-27T19:08:42.840Z,28.43
2023-03-27T19:11:12.275Z,21.60
2023-03-27T19:13:39.753Z,20.63
2023-03-27T19:16:15.159Z,18.70
2023-03-27T19:18:43.074Z,36.23
2023-03-27T19:21:10.719Z,14.40
2023-03-27T19:23:38.239Z,16.97
2023-03-27T19:26:12.410Z,28.67
2023-03-27T19:28:40.556Z,33.70
2023-03-27T19:31:09.277Z,43.33
2023-03-27T19:33:37.182Z,47.57
2023-03-27T19:36:05.431Z,45.57
2023-03-27T19:38:33.804Z,44.70
2023-03-27T19:41:02.125Z,50.83
2023-03-27T19:43:30.982Z,48.87
2023-03-27T19:46:14.360Z,47.17
2023-03-27T19:48:44.029Z,38.40
2023-03-27T19:51:11.593Z,22.23
2023-03-27T19:53:39.103Z,15.87
2023-03-27T19:56:06.698Z,16.47
2023-03-27T19:58:35.828Z,23.03
2023-03-27T20:01:04.544Z,21.93
2023-03-27T20:03:33.144Z,24.43
2023-03-27T20:06:07.518Z,32.33
2023-03-27T20:08:38.027Z,31.20
2023-03-27T20:11:06.814Z,27.37
2023-03-27T20:13:48.907Z,27.03
2023-03-27T20:16:24.182Z,27.27
2023-03-27T20:18:55.347Z,23.67
2023-03-27T20:21:25.605Z,24.67
2023-03-27T20:23:54.677Z,24.13
2023-03-27T20:26:23.405Z,26.83
2023-03-27T20:28:52.878Z,23.10
2023-03-27T20:31:21.260Z,24.70
2023-03-27T20:33:48.868Z,20.53
2023-03-27T20:36:19.614Z,18.50
2023-03-27T20:38:47.189Z,10.90
2023-03-27T20:41:15.741Z,9.63
2023-03-27T20:43:44.863Z,41.73
2023-03-27T20:46:14.344Z,56.03
2023-03-27T20:48:44.962Z,23.53
2023-03-27T20:51:23.907Z,10.00
2023-03-27T20:53:55.649Z,4.37
2023-03-27T20:56:24.069Z,16.10
2023-03-27T20:58:52.158Z,47.20
2023-03-27T21:01:27.035Z,30.47
2023-03-27T21:03:58.066Z,25.40
2023-03-27T21:06:25.786Z,4.20
2023-03-27T21:08:53.279Z,7.50
2023-03-27T21:11:20.771Z,7.27
2023-03-27T21:13:48.222Z,9.43
2023-03-27T21:16:15.792Z,3.83
2023-03-27T21:18:44.659Z,4.37
2023-03-27T21:21:12.167Z,3.43
2023-03-27T21:23:40.542Z,3.40
2023-03-27T21:26:08.465Z,6.27
2023-03-27T21:28:35.945Z,12.77
2023-03-27T21:31:07.343Z,8.80
2023-03-27T21:33:34.873Z,4.90
2023-03-27T21:36:03.995Z,5.00
2023-03-27T21:38:31.666Z,7.50
2023-03-27T21:41:01.796Z,16.93
2023-03-27T21:43:29.412Z,40.20
2023-03-27T21:45:59.061Z,44.50
2023-03-27T21:48:26.812Z,51.67
2023-03-27T21:50:59.418Z,46.20
2023-03-27T21:53:28.227Z,7.53
2023-03-27T21:55:56.507Z,9.33
2023-03-27T21:58:24.613Z,9.13
2023-03-27T22:00:52.097Z,6.07
2023-03-27T22:03:19.576Z,6.13
2023-03-27T22:05:57.399Z,8.30
2023-03-27T22:08:30.179Z,6.80
2023-03-27T22:10:59.470Z,6.83
2023-03-27T22:13:27.353Z,6.73
2023-03-27T22:15:54.920Z,10.37
2023-03-27T22:18:23.579Z,11.70
2023-03-27T22:20:51.198Z,7.63
2023-03-27T22:23:18.688Z,9.17
2023-03-27T22:25:53.735Z,8.87
2023-03-27T22:28:21.252Z,9.60
2023-03-27T22:30:48.786Z,11.40
2023-03-27T22:33:16.330Z,9.50
2023-03-27T22:35:49.170Z,9.50
2023-03-27T22:38:17.003Z,9.50
2023-03-27T22:40:44.797Z,12.47
2023-03-27T22:43:23.293Z,16.70
2023-03-27T22:45:51.073Z,20.37
2023-03-27T22:48:18.569Z,19.30
2023-03-27T22:50:53.524Z,20.30
2023-03-27T22:53:20.991Z,20.50
2023-03-27T22:55:49.411Z,21.67
2023-03-27T22:58:18.638Z,28.20
2023-03-27T23:00:47.020Z,26.40
2023-03-27T23:03:15.071Z,20.87
2023-03-27T23:05:44.047Z,19.50
2023-03-27T23:08:11.892Z,25.50
2023-03-27T23:10:39.601Z,19.23
2023-03-27T23:13:07.782Z,21.83
2023-03-27T23:15:37.106Z,20.63
2023-03-27T23:18:05.837Z,20.83
2023-03-27T23:20:33.405Z,21.40
2023-03-27T23:23:00.880Z,20.00
2023-03-27T23:25:28.379Z,22.57
2023-03-27T23:27:55.857Z,23.70
2023-03-27T23:30:23.333Z,21.90
2023-03-27T23:32:52.169Z,21.27
2023-03-27T23:35:19.931Z,22.43
2023-03-27T23:37:47.650Z,21.37
2023-03-27T23:40:15.597Z,24.20
2023-03-27T23:42:43.102Z,22.17
2023-03-27T23:45:11.923Z,26.73
2023-03-27T23:47:39.649Z,21.70
2023-03-27T23:50:09.493Z,21.17
2023-03-27T23:52:36.961Z,21.97
2023-03-27T23:55:04.856Z,20.67
2023-03-27T23:57:33.811Z,21.37
